sensor_id;sensor_type;location;lat;lon;timestamp;temperature;humidity
47660;DHT22;33403;43.608;1.458;2023-07-28T00:00:06;21.90;99.90
47660;DHT22;33403;43.608;1.458;2023-07-28T00:02:33;21.90;99.90
47660;DHT22;33403;43.608;1.458;2023-07-28T00:04:58;21.90;99.90
47660;DHT22;33403;43.608;1.458;2023-07-28T00:07:24;21.90;99.90
47660;DHT22;33403;43.608;1.458;2023-07-28T00:09:50;21.80;99.90
47660;DHT22;33403;43.608;1.458;2023-07-28T00:12:15;21.90;99.90
47660;DHT22;33403;43.608;1.458;2023-07-28T00:14:41;21.80;99.90
47660;DHT22;33403;43.608;1.458;2023-07-28T00:17:06;21.80;99.90
47660;DHT22;33403;43.608;1.458;2023-07-28T00:19:32;21.80;99.90
47660;DHT22;33403;43.608;1.458;2023-07-28T00:21:58;21.80;99.90
47660;DHT22;33403;43.608;1.458;2023-07-28T00:24:23;21.70;99.90
47660;DHT22;33403;43.608;1.458;2023-07-28T00:26:49;21.70;99.90
47660;DHT22;33403;43.608;1.458;2023-07-28T00:29:15;21.60;99.90
47660;DHT22;33403;43.608;1.458;2023-07-28T00:31:41;21.60;99.90
47660;DHT22;33403;43.608;1.458;2023-07-28T00:34:06;21.50;99.90
47660;DHT22;33403;43.608;1.458;2023-07-28T00:36:32;21.50;99.90
47660;DHT22;33403;43.608;1.458;2023-07-28T00:38:58;21.40;99.90
47660;DHT22;33403;43.608;1.458;2023-07-28T00:41:24;21.40;99.90
47660;DHT22;33403;43.608;1.458;2023-07-28T00:43:49;21.40;99.90
47660;DHT22;33403;43.608;1.458;2023-07-28T00:46:16;21.40;99.90
47660;DHT22;33403;43.608;1.458;2023-07-28T00:48:42;21.30;99.90
47660;DHT22;33403;43.608;1.458;2023-07-28T00:51:09;21.30;99.90
47660;DHT22;33403;43.608;1.458;2023-07-28T00:53:35;21.30;99.90
47660;DHT22;33403;43.608;1.458;2023-07-28T00:56:01;21.30;99.90
47660;DHT22;33403;43.608;1.458;2023-07-28T00:58:27;21.30;99.90
47660;DHT22;33403;43.608;1.458;2023-07-28T01:00:53;21.40;99.90
47660;DHT22;33403;43.608;1.458;2023-07-28T01:03:20;21.30;99.90
47660;DHT22;33403;43.608;1.458;2023-07-28T01:08:19;21.20;99.90
47660;DHT22;33403;43.608;1.458;2023-07-28T01:10:48;21.20;99.90
47660;DHT22;33403;43.608;1.458;2023-07-28T01:13:14;21.20;99.90
47660;DHT22;33403;43.608;1.458;2023-07-28T01:15:39;21.20;99.90
47660;DHT22;33403;43.608;1.458;2023-07-28T01:18:05;21.20;99.90
47660;DHT22;33403;43.608;1.458;2023-07-28T01:20:33;21.20;99.90
47660;DHT22;33403;43.608;1.458;2023-07-28T01:23:09;21.20;99.90
47660;DHT22;33403;43.608;1.458;2023-07-28T01:28:26;21.10;99.90
47660;DHT22;33403;43.608;1.458;2023-07-28T01:30:52;21.10;99.90
47660;DHT22;33403;43.608;1.458;2023-07-28T01:33:18;21.00;99.90
47660;DHT22;33403;43.608;1.458;2023-07-28T01:35:44;21.10;99.90
47660;DHT22;33403;43.608;1.458;2023-07-28T01:38:10;21.00;99.90
47660;DHT22;33403;43.608;1.458;2023-07-28T01:40:35;21.00;99.90
47660;DHT22;33403;43.608;1.458;2023-07-28T01:43:01;21.00;99.90
47660;DHT22;33403;43.608;1.458;2023-07-28T01:45:26;21.00;99.90
47660;DHT22;33403;43.608;1.458;2023-07-28T01:47:52;20.90;99.90
47660;DHT22;33403;43.608;1.458;2023-07-28T01:50:18;20.90;99.90
47660;DHT22;33403;43.608;1.458;2023-07-28T01:52:43;20.90;99.90
47660;DHT22;33403;43.608;1.458;2023-07-28T01:55:09;20.90;99.90
47660;DHT22;33403;43.608;1.458;2023-07-28T01:57:38;20.90;99.90
47660;DHT22;33403;43.608;1.458;2023-07-28T02:00:05;20.80;99.90
47660;DHT22;33403;43.608;1.458;2023-07-28T02:02:30;20.80;99.90
47660;DHT22;33403;43.608;1.458;2023-07-28T02:04:56;20.80;99.90
47660;DHT22;33403;43.608;1.458;2023-07-28T02:07:22;20.80;99.90
47660;DHT22;33403;43.608;1.458;2023-07-28T02:09:47;20.80;99.90
47660;DHT22;33403;43.608;1.458;2023-07-28T02:12:13;20.70;99.90
47660;DHT22;33403;43.608;1.458;2023-07-28T02:14:38;20.70;99.90
47660;DHT22;33403;43.608;1.458;2023-07-28T02:17:04;20.60;99.90
47660;DHT22;33403;43.608;1.458;2023-07-28T02:19:30;20.60;99.90
47660;DHT22;33403;43.608;1.458;2023-07-28T02:21:56;20.60;99.90
47660;DHT22;33403;43.608;1.458;2023-07-28T02:24:22;20.60;99.90
47660;DHT22;33403;43.608;1.458;2023-07-28T02:26:47;20.60;99.90
47660;DHT22;33403;43.608;1.458;2023-07-28T02:29:13;20.50;99.90
47660;DHT22;33403;43.608;1.458;2023-07-28T02:31:39;20.50;99.90
47660;DHT22;33403;43.608;1.458;2023-07-28T02:34:04;20.50;99.90
47660;DHT22;33403;43.608;1.458;2023-07-28T02:36:30;20.50;99.90
47660;DHT22;33403;43.608;1.458;2023-07-28T02:38:56;20.40;99.90
47660;DHT22;33403;43.608;1.458;2023-07-28T02:41:22;20.40;99.90
47660;DHT22;33403;43.608;1.458;2023-07-28T02:43:47;20.40;99.90
47660;DHT22;33403;43.608;1.458;2023-07-28T02:46:13;20.40;99.90
47660;DHT22;33403;43.608;1.458;2023-07-28T02:48:38;20.40;99.90
47660;DHT22;33403;43.608;1.458;2023-07-28T02:51:04;20.40;99.90
47660;DHT22;33403;43.608;1.458;2023-07-28T02:53:30;20.40;99.90
47660;DHT22;33403;43.608;1.458;2023-07-28T02:55:56;20.40;99.90
47660;DHT22;33403;43.608;1.458;2023-07-28T02:58:22;20.30;99.90
47660;DHT22;33403;43.608;1.458;2023-07-28T03:00:47;20.30;99.90
47660;DHT22;33403;43.608;1.458;2023-07-28T03:03:13;20.30;99.90
47660;DHT22;33403;43.608;1.458;2023-07-28T03:05:39;20.30;99.90
47660;DHT22;33403;43.608;1.458;2023-07-28T03:08:05;20.30;99.90
47660;DHT22;33403;43.608;1.458;2023-07-28T03:10:32;20.30;99.90
47660;DHT22;33403;43.608;1.458;2023-07-28T03:12:57;20.30;99.90
47660;DHT22;33403;43.608;1.458;2023-07-28T03:15:23;20.30;99.90
47660;DHT22;33403;43.608;1.458;2023-07-28T03:17:50;20.30;99.90
47660;DHT22;33403;43.608;1.458;2023-07-28T03:20:16;20.30;99.90
47660;DHT22;33403;43.608;1.458;2023-07-28T03:22:42;20.30;99.90
47660;DHT22;33403;43.608;1.458;2023-07-28T03:25:08;20.30;99.90
47660;DHT22;33403;43.608;1.458;2023-07-28T03:27:34;20.30;99.90
47660;DHT22;33403;43.608;1.458;2023-07-28T03:30:00;20.20;99.90
47660;DHT22;33403;43.608;1.458;2023-07-28T03:32:25;20.20;99.90
47660;DHT22;33403;43.608;1.458;2023-07-28T03:34:51;20.20;99.90
47660;DHT22;33403;43.608;1.458;2023-07-28T03:37:16;20.10;99.90
47660;DHT22;33403;43.608;1.458;2023-07-28T03:39:42;20.10;99.90
47660;DHT22;33403;43.608;1.458;2023-07-28T03:42:08;20.10;99.90
47660;DHT22;33403;43.608;1.458;2023-07-28T03:44:34;20.10;99.90
47660;DHT22;33403;43.608;1.458;2023-07-28T03:47:00;20.10;99.90
47660;DHT22;33403;43.608;1.458;2023-07-28T03:49:25;20.10;99.90
47660;DHT22;33403;43.608;1.458;2023-07-28T03:51:51;20.10;99.90
47660;DHT22;33403;43.608;1.458;2023-07-28T03:54:17;20.10;99.90
47660;DHT22;33403;43.608;1.458;2023-07-28T03:56:43;20.00;99.90
47660;DHT22;33403;43.608;1.458;2023-07-28T03:59:08;20.00;99.90
47660;DHT22;33403;43.608;1.458;2023-07-28T04:01:34;20.00;99.90
47660;DHT22;33403;43.608;1.458;2023-07-28T04:03:59;20.00;99.90
47660;DHT22;33403;43.608;1.458;2023-07-28T04:06:45;20.00;99.90
47660;DHT22;33403;43.608;1.458;2023-07-28T04:09:13;20.00;99.90
47660;DHT22;33403;43.608;1.458;2023-07-28T04:11:39;20.00;99.90
47660;DHT22;33403;43.608;1.458;2023-07-28T04:14:05;20.00;99.90
47660;DHT22;33403;43.608;1.458;2023-07-28T04:16:31;20.00;99.90
47660;DHT22;33403;43.608;1.458;2023-07-28T04:18:57;20.00;99.90
47660;DHT22;33403;43.608;1.458;2023-07-28T04:21:23;20.00;99.90
47660;DHT22;33403;43.608;1.458;2023-07-28T04:23:49;20.00;99.90
47660;DHT22;33403;43.608;1.458;2023-07-28T04:26:15;20.00;99.90
47660;DHT22;33403;43.608;1.458;2023-07-28T04:28:41;20.00;99.90
47660;DHT22;33403;43.608;1.458;2023-07-28T04:31:06;19.90;99.90
47660;DHT22;33403;43.608;1.458;2023-07-28T04:33:32;19.90;99.90
47660;DHT22;33403;43.608;1.458;2023-07-28T04:35:58;19.90;99.90
47660;DHT22;33403;43.608;1.458;2023-07-28T04:38:23;19.90;99.90
47660;DHT22;33403;43.608;1.458;2023-07-28T04:40:49;19.90;99.90
47660;DHT22;33403;43.608;1.458;2023-07-28T04:43:15;19.90;99.90
47660;DHT22;33403;43.608;1.458;2023-07-28T04:45:40;19.90;99.90
47660;DHT22;33403;43.608;1.458;2023-07-28T04:48:06;19.90;99.90
47660;DHT22;33403;43.608;1.458;2023-07-28T04:50:32;19.90;99.90
47660;DHT22;33403;43.608;1.458;2023-07-28T04:52:59;19.90;99.90
47660;DHT22;33403;43.608;1.458;2023-07-28T04:55:25;19.90;99.90
47660;DHT22;33403;43.608;1.458;2023-07-28T04:57:52;19.90;99.90
47660;DHT22;33403;43.608;1.458;2023-07-28T05:00:18;19.90;99.90
47660;DHT22;33403;43.608;1.458;2023-07-28T05:02:44;20.00;99.90
47660;DHT22;33403;43.608;1.458;2023-07-28T05:05:09;19.90;99.90
47660;DHT22;33403;43.608;1.458;2023-07-28T05:07:35;20.00;99.90
47660;DHT22;33403;43.608;1.458;2023-07-28T05:10:01;19.90;99.90
47660;DHT22;33403;43.608;1.458;2023-07-28T05:12:27;19.90;99.90
47660;DHT22;33403;43.608;1.458;2023-07-28T05:14:53;19.80;99.90
47660;DHT22;33403;43.608;1.458;2023-07-28T05:17:18;19.80;99.90
47660;DHT22;33403;43.608;1.458;2023-07-28T05:19:44;19.80;99.90
47660;DHT22;33403;43.608;1.458;2023-07-28T05:22:10;19.80;99.90
47660;DHT22;33403;43.608;1.458;2023-07-28T05:24:35;19.80;99.90
47660;DHT22;33403;43.608;1.458;2023-07-28T05:27:01;19.90;99.90
47660;DHT22;33403;43.608;1.458;2023-07-28T05:29:27;19.90;99.90
47660;DHT22;33403;43.608;1.458;2023-07-28T05:31:53;19.90;99.90
47660;DHT22;33403;43.608;1.458;2023-07-28T05:34:18;19.90;99.90
47660;DHT22;33403;43.608;1.458;2023-07-28T05:36:44;19.90;99.90
47660;DHT22;33403;43.608;1.458;2023-07-28T05:39:10;20.00;99.90
47660;DHT22;33403;43.608;1.458;2023-07-28T05:41:36;20.10;99.90
47660;DHT22;33403;43.608;1.458;2023-07-28T05:44:03;20.10;99.90
47660;DHT22;33403;43.608;1.458;2023-07-28T05:46:28;20.20;99.90
47660;DHT22;33403;43.608;1.458;2023-07-28T05:48:55;20.10;99.90
47660;DHT22;33403;43.608;1.458;2023-07-28T05:51:22;20.10;99.90
47660;DHT22;33403;43.608;1.458;2023-07-28T05:53:47;20.10;99.90
47660;DHT22;33403;43.608;1.458;2023-07-28T05:56:13;20.10;99.90
47660;DHT22;33403;43.608;1.458;2023-07-28T05:58:39;20.10;99.90
47660;DHT22;33403;43.608;1.458;2023-07-28T06:01:05;20.10;99.90
47660;DHT22;33403;43.608;1.458;2023-07-28T06:03:30;20.10;99.90
47660;DHT22;33403;43.608;1.458;2023-07-28T06:05:56;20.10;99.90
47660;DHT22;33403;43.608;1.458;2023-07-28T06:08:22;20.20;99.90
47660;DHT22;33403;43.608;1.458;2023-07-28T06:10:48;20.20;99.90
47660;DHT22;33403;43.608;1.458;2023-07-28T06:13:13;20.20;99.90
47660;DHT22;33403;43.608;1.458;2023-07-28T06:15:40;20.30;99.90
47660;DHT22;33403;43.608;1.458;2023-07-28T06:18:06;20.30;99.90
47660;DHT22;33403;43.608;1.458;2023-07-28T06:20:31;20.30;99.90
47660;DHT22;33403;43.608;1.458;2023-07-28T06:22:57;20.30;99.90
47660;DHT22;33403;43.608;1.458;2023-07-28T06:25:22;20.40;99.90
47660;DHT22;33403;43.608;1.458;2023-07-28T06:27:48;20.50;99.90
47660;DHT22;33403;43.608;1.458;2023-07-28T06:30:14;20.80;99.90
47660;DHT22;33403;43.608;1.458;2023-07-28T06:32:39;21.10;99.90
47660;DHT22;33403;43.608;1.458;2023-07-28T06:35:05;21.40;99.90
47660;DHT22;33403;43.608;1.458;2023-07-28T06:37:33;21.60;99.90
47660;DHT22;33403;43.608;1.458;2023-07-28T06:39:59;21.80;99.90
47660;DHT22;33403;43.608;1.458;2023-07-28T06:42:25;21.90;99.90
47660;DHT22;33403;43.608;1.458;2023-07-28T06:44:51;22.00;99.90
47660;DHT22;33403;43.608;1.458;2023-07-28T06:47:18;21.90;99.90
47660;DHT22;33403;43.608;1.458;2023-07-28T06:49:44;21.70;99.90
47660;DHT22;33403;43.608;1.458;2023-07-28T06:52:09;21.70;99.90
47660;DHT22;33403;43.608;1.458;2023-07-28T06:54:36;21.60;99.90
47660;DHT22;33403;43.608;1.458;2023-07-28T06:57:02;21.60;99.90
47660;DHT22;33403;43.608;1.458;2023-07-28T06:59:27;21.50;99.90
47660;DHT22;33403;43.608;1.458;2023-07-28T07:01:53;21.50;99.90
47660;DHT22;33403;43.608;1.458;2023-07-28T07:04:19;21.40;99.90
47660;DHT22;33403;43.608;1.458;2023-07-28T07:06:45;21.40;99.90
47660;DHT22;33403;43.608;1.458;2023-07-28T07:09:11;21.30;99.90
47660;DHT22;33403;43.608;1.458;2023-07-28T07:11:40;21.30;99.90
47660;DHT22;33403;43.608;1.458;2023-07-28T07:14:06;21.40;99.90
47660;DHT22;33403;43.608;1.458;2023-07-28T07:16:32;21.40;99.90
47660;DHT22;33403;43.608;1.458;2023-07-28T07:18:58;21.50;99.90
47660;DHT22;33403;43.608;1.458;2023-07-28T07:21:24;21.50;99.90
47660;DHT22;33403;43.608;1.458;2023-07-28T07:23:49;21.60;99.90
47660;DHT22;33403;43.608;1.458;2023-07-28T07:26:15;21.60;99.90
47660;DHT22;33403;43.608;1.458;2023-07-28T07:28:40;21.70;99.90
47660;DHT22;33403;43.608;1.458;2023-07-28T07:31:13;21.70;99.90
47660;DHT22;33403;43.608;1.458;2023-07-28T07:33:40;21.80;99.90
47660;DHT22;33403;43.608;1.458;2023-07-28T07:36:05;21.90;99.90
47660;DHT22;33403;43.608;1.458;2023-07-28T07:38:31;22.00;99.90
47660;DHT22;33403;43.608;1.458;2023-07-28T07:40:56;22.00;99.90
47660;DHT22;33403;43.608;1.458;2023-07-28T07:43:22;22.10;99.90
47660;DHT22;33403;43.608;1.458;2023-07-28T07:45:48;22.20;99.90
47660;DHT22;33403;43.608;1.458;2023-07-28T07:48:15;22.30;99.90
47660;DHT22;33403;43.608;1.458;2023-07-28T07:50:41;22.40;99.90
47660;DHT22;33403;43.608;1.458;2023-07-28T07:53:07;22.50;99.90
47660;DHT22;33403;43.608;1.458;2023-07-28T07:55:32;22.40;99.90
47660;DHT22;33403;43.608;1.458;2023-07-28T07:57:58;22.50;99.90
47660;DHT22;33403;43.608;1.458;2023-07-28T08:00:24;22.70;99.90
47660;DHT22;33403;43.608;1.458;2023-07-28T08:02:49;22.90;99.90
47660;DHT22;33403;43.608;1.458;2023-07-28T08:05:15;23.20;99.90
47660;DHT22;33403;43.608;1.458;2023-07-28T08:07:41;23.50;99.90
47660;DHT22;33403;43.608;1.458;2023-07-28T08:10:07;23.70;99.90
47660;DHT22;33403;43.608;1.458;2023-07-28T08:12:33;23.90;99.90
47660;DHT22;33403;43.608;1.458;2023-07-28T08:14:59;24.00;99.90
47660;DHT22;33403;43.608;1.458;2023-07-28T08:17:25;24.10;99.90
47660;DHT22;33403;43.608;1.458;2023-07-28T08:19:51;24.20;99.90
47660;DHT22;33403;43.608;1.458;2023-07-28T08:22:16;24.20;99.90
47660;DHT22;33403;43.608;1.458;2023-07-28T08:24:42;24.40;99.90
47660;DHT22;33403;43.608;1.458;2023-07-28T08:27:07;24.50;99.90
47660;DHT22;33403;43.608;1.458;2023-07-28T08:29:33;24.70;99.90
47660;DHT22;33403;43.608;1.458;2023-07-28T08:31:59;25.00;99.90
47660;DHT22;33403;43.608;1.458;2023-07-28T08:34:25;25.00;99.90
47660;DHT22;33403;43.608;1.458;2023-07-28T08:36:51;25.00;99.90
47660;DHT22;33403;43.608;1.458;2023-07-28T08:39:20;25.00;99.90
47660;DHT22;33403;43.608;1.458;2023-07-28T08:41:46;25.00;99.90
47660;DHT22;33403;43.608;1.458;2023-07-28T08:44:11;24.80;99.90
47660;DHT22;33403;43.608;1.458;2023-07-28T08:46:37;24.70;99.90
47660;DHT22;33403;43.608;1.458;2023-07-28T08:49:03;24.60;99.90
47660;DHT22;33403;43.608;1.458;2023-07-28T08:51:29;24.60;99.90
47660;DHT22;33403;43.608;1.458;2023-07-28T08:53:55;24.60;99.90
47660;DHT22;33403;43.608;1.458;2023-07-28T08:56:29;24.60;99.90
47660;DHT22;33403;43.608;1.458;2023-07-28T08:58:58;24.60;99.90
47660;DHT22;33403;43.608;1.458;2023-07-28T09:01:24;24.60;99.90
47660;DHT22;33403;43.608;1.458;2023-07-28T09:03:50;24.70;99.90
47660;DHT22;33403;43.608;1.458;2023-07-28T09:06:15;24.70;99.90
47660;DHT22;33403;43.608;1.458;2023-07-28T09:08:43;24.80;99.90
47660;DHT22;33403;43.608;1.458;2023-07-28T09:11:08;25.00;99.90
47660;DHT22;33403;43.608;1.458;2023-07-28T09:13:41;25.20;99.90
47660;DHT22;33403;43.608;1.458;2023-07-28T09:16:20;25.30;99.90
47660;DHT22;33403;43.608;1.458;2023-07-28T09:18:46;25.50;99.90
47660;DHT22;33403;43.608;1.458;2023-07-28T09:21:19;25.60;99.90
47660;DHT22;33403;43.608;1.458;2023-07-28T09:23:49;26.00;99.90
47660;DHT22;33403;43.608;1.458;2023-07-28T09:26:15;26.10;99.90
47660;DHT22;33403;43.608;1.458;2023-07-28T09:28:42;26.20;99.90
47660;DHT22;33403;43.608;1.458;2023-07-28T09:31:08;26.10;99.90
47660;DHT22;33403;43.608;1.458;2023-07-28T09:33:36;26.20;99.90
47660;DHT22;33403;43.608;1.458;2023-07-28T09:36:19;26.20;99.90
47660;DHT22;33403;43.608;1.458;2023-07-28T09:38:49;26.20;99.90
47660;DHT22;33403;43.608;1.458;2023-07-28T09:41:16;26.30;99.90
47660;DHT22;33403;43.608;1.458;2023-07-28T09:43:43;26.20;99.90
47660;DHT22;33403;43.608;1.458;2023-07-28T09:46:10;26.00;99.90
47660;DHT22;33403;43.608;1.458;2023-07-28T09:48:38;25.80;99.90
47660;DHT22;33403;43.608;1.458;2023-07-28T09:51:18;25.60;99.90
47660;DHT22;33403;43.608;1.458;2023-07-28T09:53:49;25.80;99.90
47660;DHT22;33403;43.608;1.458;2023-07-28T09:56:20;26.00;99.90
47660;DHT22;33403;43.608;1.458;2023-07-28T09:58:52;26.00;99.90
47660;DHT22;33403;43.608;1.458;2023-07-28T10:01:19;26.00;99.90
47660;DHT22;33403;43.608;1.458;2023-07-28T10:03:47;26.10;99.90
47660;DHT22;33403;43.608;1.458;2023-07-28T10:06:13;26.20;99.90
47660;DHT22;33403;43.608;1.458;2023-07-28T10:08:40;26.30;99.90
47660;DHT22;33403;43.608;1.458;2023-07-28T10:11:06;26.70;99.90
47660;DHT22;33403;43.608;1.458;2023-07-28T10:13:42;27.10;99.90
47660;DHT22;33403;43.608;1.458;2023-07-28T10:16:08;27.20;99.30
47660;DHT22;33403;43.608;1.458;2023-07-28T10:18:35;27.20;99.80
47660;DHT22;33403;43.608;1.458;2023-07-28T10:21:06;27.20;99.90
47660;DHT22;33403;43.608;1.458;2023-07-28T10:23:34;27.20;99.90
47660;DHT22;33403;43.608;1.458;2023-07-28T10:26:03;27.20;99.90
47660;DHT22;33403;43.608;1.458;2023-07-28T10:28:35;27.20;99.80
47660;DHT22;33403;43.608;1.458;2023-07-28T10:31:05;27.20;99.90
47660;DHT22;33403;43.608;1.458;2023-07-28T10:33:35;27.30;99.80
47660;DHT22;33403;43.608;1.458;2023-07-28T10:36:18;27.20;99.90
47660;DHT22;33403;43.608;1.458;2023-07-28T10:39:15;27.20;99.40
47660;DHT22;33403;43.608;1.458;2023-07-28T10:44:29;27.20;99.90
47660;DHT22;33403;43.608;1.458;2023-07-28T10:46:55;27.30;99.90
47660;DHT22;33403;43.608;1.458;2023-07-28T10:49:22;27.30;99.30
47660;DHT22;33403;43.608;1.458;2023-07-28T10:51:49;27.30;98.20
47660;DHT22;33403;43.608;1.458;2023-07-28T10:54:15;27.40;99.40
47660;DHT22;33403;43.608;1.458;2023-07-28T10:56:45;27.50;97.80
47660;DHT22;33403;43.608;1.458;2023-07-28T10:59:11;27.70;99.30
47660;DHT22;33403;43.608;1.458;2023-07-28T11:01:38;27.90;99.10
47660;DHT22;33403;43.608;1.458;2023-07-28T11:04:14;28.00;97.00
47660;DHT22;33403;43.608;1.458;2023-07-28T11:06:42;27.90;97.00
47660;DHT22;33403;43.608;1.458;2023-07-28T11:09:08;27.60;96.70
47660;DHT22;33403;43.608;1.458;2023-07-28T11:11:36;27.40;95.70
47660;DHT22;33403;43.608;1.458;2023-07-28T11:14:04;27.30;98.60
47660;DHT22;33403;43.608;1.458;2023-07-28T11:16:30;27.10;99.90
47660;DHT22;33403;43.608;1.458;2023-07-28T11:19:03;27.10;99.60
47660;DHT22;33403;43.608;1.458;2023-07-28T11:21:36;27.10;98.90
47660;DHT22;33403;43.608;1.458;2023-07-28T11:24:03;27.10;97.90
47660;DHT22;33403;43.608;1.458;2023-07-28T11:26:29;27.10;97.90
47660;DHT22;33403;43.608;1.458;2023-07-28T11:28:54;27.00;95.90
47660;DHT22;33403;43.608;1.458;2023-07-28T11:31:23;27.00;97.40
47660;DHT22;33403;43.608;1.458;2023-07-28T11:33:51;27.30;98.40
47660;DHT22;33403;43.608;1.458;2023-07-28T11:36:26;27.30;99.00
47660;DHT22;33403;43.608;1.458;2023-07-28T11:38:53;27.40;98.90
47660;DHT22;33403;43.608;1.458;2023-07-28T11:41:20;27.50;99.60
47660;DHT22;33403;43.608;1.458;2023-07-28T11:43:48;27.60;98.80
47660;DHT22;33403;43.608;1.458;2023-07-28T11:46:33;27.70;96.70
47660;DHT22;33403;43.608;1.458;2023-07-28T11:49:13;27.60;95.60
47660;DHT22;33403;43.608;1.458;2023-07-28T11:51:50;27.70;96.80
47660;DHT22;33403;43.608;1.458;2023-07-28T11:54:19;27.60;97.80
47660;DHT22;33403;43.608;1.458;2023-07-28T11:56:48;27.60;98.10
47660;DHT22;33403;43.608;1.458;2023-07-28T11:59:18;27.50;95.50
47660;DHT22;33403;43.608;1.458;2023-07-28T12:01:54;27.20;96.70
47660;DHT22;33403;43.608;1.458;2023-07-28T12:04:30;27.10;97.00
47660;DHT22;33403;43.608;1.458;2023-07-28T12:07:15;27.00;97.80
47660;DHT22;33403;43.608;1.458;2023-07-28T12:12:15;27.30;98.40
47660;DHT22;33403;43.608;1.458;2023-07-28T12:14:41;27.40;97.70
47660;DHT22;33403;43.608;1.458;2023-07-28T12:17:22;27.50;97.40
47660;DHT22;33403;43.608;1.458;2023-07-28T12:22:23;27.60;96.60
47660;DHT22;33403;43.608;1.458;2023-07-28T12:24:48;27.70;97.00
47660;DHT22;33403;43.608;1.458;2023-07-28T12:27:14;27.80;98.30
47660;DHT22;33403;43.608;1.458;2023-07-28T12:29:41;27.90;95.70
47660;DHT22;33403;43.608;1.458;2023-07-28T12:32:07;27.90;95.10
47660;DHT22;33403;43.608;1.458;2023-07-28T12:34:33;27.70;95.70
47660;DHT22;33403;43.608;1.458;2023-07-28T12:36:59;27.80;96.80
47660;DHT22;33403;43.608;1.458;2023-07-28T12:39:24;27.80;97.40
47660;DHT22;33403;43.608;1.458;2023-07-28T12:41:50;27.90;97.70
47660;DHT22;33403;43.608;1.458;2023-07-28T12:44:19;28.10;97.20
47660;DHT22;33403;43.608;1.458;2023-07-28T12:46:45;28.20;96.50
47660;DHT22;33403;43.608;1.458;2023-07-28T12:49:11;28.20;96.40
47660;DHT22;33403;43.608;1.458;2023-07-28T12:51:36;28.30;96.20
47660;DHT22;33403;43.608;1.458;2023-07-28T12:54:02;28.50;96.70
47660;DHT22;33403;43.608;1.458;2023-07-28T12:56:28;28.70;94.90
47660;DHT22;33403;43.608;1.458;2023-07-28T12:58:54;28.70;95.50
47660;DHT22;33403;43.608;1.458;2023-07-28T13:01:19;28.70;95.80
47660;DHT22;33403;43.608;1.458;2023-07-28T13:03:45;28.60;94.70
47660;DHT22;33403;43.608;1.458;2023-07-28T13:06:11;28.50;96.10
47660;DHT22;33403;43.608;1.458;2023-07-28T13:08:37;28.40;95.40
47660;DHT22;33403;43.608;1.458;2023-07-28T13:11:03;28.20;95.60
47660;DHT22;33403;43.608;1.458;2023-07-28T13:13:29;28.00;97.60
47660;DHT22;33403;43.608;1.458;2023-07-28T13:15:56;28.00;98.20
47660;DHT22;33403;43.608;1.458;2023-07-28T13:18:23;28.00;98.10
47660;DHT22;33403;43.608;1.458;2023-07-28T13:20:50;28.10;97.30
47660;DHT22;33403;43.608;1.458;2023-07-28T13:23:15;28.20;97.10
47660;DHT22;33403;43.608;1.458;2023-07-28T13:25:41;28.40;96.90
47660;DHT22;33403;43.608;1.458;2023-07-28T13:28:07;28.60;95.40
47660;DHT22;33403;43.608;1.458;2023-07-28T13:30:32;28.50;95.10
47660;DHT22;33403;43.608;1.458;2023-07-28T13:32:58;28.30;94.60
47660;DHT22;33403;43.608;1.458;2023-07-28T13:35:23;28.30;95.60
47660;DHT22;33403;43.608;1.458;2023-07-28T13:37:50;28.20;96.30
47660;DHT22;33403;43.608;1.458;2023-07-28T13:40:15;28.10;96.50
47660;DHT22;33403;43.608;1.458;2023-07-28T13:42:41;28.20;97.10
47660;DHT22;33403;43.608;1.458;2023-07-28T13:45:08;28.20;96.40
47660;DHT22;33403;43.608;1.458;2023-07-28T13:47:34;28.30;96.80
47660;DHT22;33403;43.608;1.458;2023-07-28T13:50:00;28.10;94.60
47660;DHT22;33403;43.608;1.458;2023-07-28T13:52:26;27.90;96.20
47660;DHT22;33403;43.608;1.458;2023-07-28T13:54:52;27.80;95.80
47660;DHT22;33403;43.608;1.458;2023-07-28T13:57:18;27.60;94.70
47660;DHT22;33403;43.608;1.458;2023-07-28T13:59:43;27.50;95.00
47660;DHT22;33403;43.608;1.458;2023-07-28T14:02:09;27.30;95.30
47660;DHT22;33403;43.608;1.458;2023-07-28T14:04:35;27.40;96.50
47660;DHT22;33403;43.608;1.458;2023-07-28T14:07:00;27.40;96.60
47660;DHT22;33403;43.608;1.458;2023-07-28T14:09:26;27.40;97.20
47660;DHT22;33403;43.608;1.458;2023-07-28T14:11:52;27.30;97.20
47660;DHT22;33403;43.608;1.458;2023-07-28T14:14:17;27.30;96.80
47660;DHT22;33403;43.608;1.458;2023-07-28T14:16:43;27.30;96.20
47660;DHT22;33403;43.608;1.458;2023-07-28T14:19:09;27.30;96.80
47660;DHT22;33403;43.608;1.458;2023-07-28T14:21:34;27.30;97.40
47660;DHT22;33403;43.608;1.458;2023-07-28T14:24:04;27.20;96.90
47660;DHT22;33403;43.608;1.458;2023-07-28T14:26:30;27.20;96.30
47660;DHT22;33403;43.608;1.458;2023-07-28T14:28:56;27.10;95.70
47660;DHT22;33403;43.608;1.458;2023-07-28T14:31:21;27.10;97.00
47660;DHT22;33403;43.608;1.458;2023-07-28T14:33:47;27.10;97.30
47660;DHT22;33403;43.608;1.458;2023-07-28T14:36:12;27.10;97.20
47660;DHT22;33403;43.608;1.458;2023-07-28T14:38:38;27.00;97.60
47660;DHT22;33403;43.608;1.458;2023-07-28T14:41:04;27.00;97.90
47660;DHT22;33403;43.608;1.458;2023-07-28T14:43:30;27.10;96.90
47660;DHT22;33403;43.608;1.458;2023-07-28T14:45:55;27.10;96.20
47660;DHT22;33403;43.608;1.458;2023-07-28T14:48:21;27.20;96.10
47660;DHT22;33403;43.608;1.458;2023-07-28T14:50:47;27.30;95.60
47660;DHT22;33403;43.608;1.458;2023-07-28T14:55:58;27.30;94.10
47660;DHT22;33403;43.608;1.458;2023-07-28T14:58:25;27.20;95.80
47660;DHT22;33403;43.608;1.458;2023-07-28T15:00:51;27.10;96.50
47660;DHT22;33403;43.608;1.458;2023-07-28T15:03:17;27.10;97.20
47660;DHT22;33403;43.608;1.458;2023-07-28T15:05:42;27.00;97.50
47660;DHT22;33403;43.608;1.458;2023-07-28T15:08:08;27.00;97.40
47660;DHT22;33403;43.608;1.458;2023-07-28T15:10:34;26.90;97.00
47660;DHT22;33403;43.608;1.458;2023-07-28T15:12:59;26.90;96.40
47660;DHT22;33403;43.608;1.458;2023-07-28T15:15:25;26.90;96.40
47660;DHT22;33403;43.608;1.458;2023-07-28T15:17:50;26.80;97.00
47660;DHT22;33403;43.608;1.458;2023-07-28T15:20:16;26.80;96.90
47660;DHT22;33403;43.608;1.458;2023-07-28T15:22:47;26.80;97.10
47660;DHT22;33403;43.608;1.458;2023-07-28T15:25:13;26.80;96.70
47660;DHT22;33403;43.608;1.458;2023-07-28T15:27:42;26.80;96.90
47660;DHT22;33403;43.608;1.458;2023-07-28T15:30:09;26.80;96.90
47660;DHT22;33403;43.608;1.458;2023-07-28T15:32:36;26.80;97.60
47660;DHT22;33403;43.608;1.458;2023-07-28T15:35:02;26.80;97.70
47660;DHT22;33403;43.608;1.458;2023-07-28T15:37:29;26.80;97.40
47660;DHT22;33403;43.608;1.458;2023-07-28T15:39:55;26.80;96.80
47660;DHT22;33403;43.608;1.458;2023-07-28T15:42:21;26.80;96.90